createdAt,value
2018-08-16T00:01:47.538Z,515.13
2018-08-16T00:04:14.780Z,513.93
2018-08-16T00:06:42.036Z,517.50
2018-08-16T00:09:09.479Z,513.00
2018-08-16T00:11:36.739Z,515.97
2018-08-16T00:14:04.003Z,519.17
2018-08-16T00:16:31.291Z,526.67
2018-08-16T00:18:58.520Z,524.70
2018-08-16T00:21:25.763Z,519.23
2018-08-16T00:23:52.995Z,516.03
2018-08-16T00:26:20.235Z,524.27
2018-08-16T00:28:47.465Z,471.37
2018-08-16T00:31:14.728Z,516.23
2018-08-16T00:33:41.953Z,510.20
2018-08-16T00:36:09.184Z,512.67
2018-08-16T00:38:36.416Z,511.77
2018-08-16T00:41:03.682Z,512.17
2018-08-16T00:43:30.911Z,520.77
2018-08-16T00:45:58.246Z,515.37
2018-08-16T00:48:25.467Z,515.63
2018-08-16T00:50:52.735Z,516.57
2018-08-16T00:53:19.974Z,519.87
2018-08-16T00:55:47.203Z,513.27
2018-08-16T00:58:14.445Z,514.27
2018-08-16T01:00:41.684Z,519.90
2018-08-16T01:03:09.155Z,520.07
2018-08-16T01:05:36.441Z,516.13
2018-08-16T01:08:03.722Z,512.23
2018-08-16T01:10:30.943Z,514.10
2018-08-16T01:12:58.131Z,512.30
2018-08-16T01:15:25.360Z,517.53
2018-08-16T01:17:52.560Z,519.17
2018-08-16T01:20:19.802Z,511.93
2018-08-16T01:22:46.986Z,514.60
2018-08-16T01:25:14.200Z,518.77
2018-08-16T01:27:41.567Z,515.07
2018-08-16T01:30:09.499Z,523.00
2018-08-16T01:32:36.701Z,511.27
2018-08-16T01:35:04.732Z,513.60
2018-08-16T01:37:31.933Z,516.43
2018-08-16T01:39:59.113Z,519.87
2018-08-16T01:42:26.408Z,517.97
2018-08-16T01:44:53.630Z,510.77
2018-08-16T01:47:20.835Z,506.83
2018-08-16T01:49:48.070Z,464.83
2018-08-16T01:52:15.274Z,435.60
2018-08-16T01:54:42.477Z,507.83
2018-08-16T01:57:09.712Z,519.93
2018-08-16T01:59:36.933Z,515.70
2018-08-16T02:02:04.207Z,514.00
2018-08-16T02:04:31.464Z,510.07
2018-08-16T02:06:58.722Z,519.80
2018-08-16T02:09:25.939Z,509.33
2018-08-16T02:11:53.338Z,509.33
2018-08-16T02:14:20.849Z,508.80
2018-08-16T02:16:48.392Z,508.87
2018-08-16T02:19:15.599Z,515.17
2018-08-16T02:21:42.813Z,511.00
2018-08-16T02:24:10.211Z,522.57
2018-08-16T02:26:37.444Z,435.40
2018-08-16T02:29:04.716Z,510.10
2018-08-16T02:31:31.967Z,511.90
2018-08-16T02:33:59.185Z,509.90
2018-08-16T02:36:26.451Z,515.03
2018-08-16T02:38:53.909Z,510.07
2018-08-16T02:41:21.198Z,510.37
2018-08-16T02:43:48.464Z,509.67
2018-08-16T02:46:15.752Z,521.77
2018-08-16T02:48:42.976Z,510.60
2018-08-16T02:51:10.420Z,518.07
2018-08-16T02:53:37.669Z,505.97
2018-08-16T02:56:04.965Z,431.83
2018-08-16T02:58:32.487Z,508.97
2018-08-16T03:00:59.755Z,505.30
2018-08-16T03:03:26.990Z,516.30
2018-08-16T03:05:54.224Z,519.97
2018-08-16T03:08:21.647Z,511.50
2018-08-16T03:10:48.994Z,508.23
2018-08-16T03:13:16.214Z,504.50
2018-08-16T03:15:43.468Z,506.00
2018-08-16T03:18:10.705Z,515.10
2018-08-16T03:20:38.075Z,437.20
2018-08-16T03:23:05.639Z,508.53
2018-08-16T03:25:32.867Z,504.53
2018-08-16T03:28:00.105Z,509.80
2018-08-16T03:30:27.344Z,433.57
2018-08-16T03:32:54.594Z,513.00
2018-08-16T03:35:21.953Z,512.33
2018-08-16T03:37:49.206Z,503.80
2018-08-16T03:40:16.602Z,512.57
2018-08-16T03:42:43.836Z,508.00
2018-08-16T03:45:11.090Z,506.17
2018-08-16T03:47:38.487Z,509.23
2018-08-16T03:50:06.376Z,505.13
2018-08-16T03:52:33.607Z,510.93
2018-08-16T03:55:00.880Z,514.17
2018-08-16T03:57:28.106Z,509.60
2018-08-16T03:59:55.340Z,513.27
2018-08-16T04:02:22.568Z,508.70
2018-08-16T04:04:49.803Z,504.57
2018-08-16T04:07:17.020Z,502.77
2018-08-16T04:09:44.253Z,504.27
2018-08-16T04:12:11.491Z,508.97
2018-08-16T04:14:38.721Z,505.03
2018-08-16T04:17:06.158Z,508.00
2018-08-16T04:19:33.381Z,509.00
2018-08-16T04:22:00.612Z,504.97
2018-08-16T04:24:27.846Z,511.03
2018-08-16T04:26:55.087Z,513.20
2018-08-16T04:29:22.306Z,509.40
2018-08-16T04:31:49.534Z,514.17
2018-08-16T04:34:16.766Z,504.07
2018-08-16T04:36:44.010Z,503.60
2018-08-16T04:39:11.248Z,507.13
2018-08-16T04:41:38.901Z,514.53
2018-08-16T04:44:06.112Z,504.93
2018-08-16T04:46:33.564Z,431.80
2018-08-16T04:49:00.777Z,508.60
2018-08-16T04:51:28.047Z,509.33
2018-08-16T04:53:55.272Z,433.17
2018-08-16T04:56:22.524Z,432.30
2018-08-16T04:58:49.768Z,515.47
2018-08-16T05:01:17.012Z,505.67
2018-08-16T05:03:44.282Z,433.77
2018-08-16T05:06:11.684Z,508.70
2018-08-16T05:08:38.899Z,503.47
2018-08-16T05:11:06.224Z,505.57
2018-08-16T05:13:33.408Z,510.97
2018-08-16T05:16:00.653Z,509.77
2018-08-16T05:18:27.880Z,432.07
2018-08-16T05:20:55.110Z,512.13
2018-08-16T05:23:22.375Z,509.30
2018-08-16T05:25:49.612Z,434.13
2018-08-16T05:28:16.847Z,508.30
2018-08-16T05:30:44.074Z,514.20
2018-08-16T05:33:11.465Z,466.87
2018-08-16T05:35:38.715Z,512.37
2018-08-16T05:38:05.966Z,507.30
2018-08-16T05:40:33.180Z,509.63
2018-08-16T05:43:00.389Z,439.27
2018-08-16T05:45:27.644Z,513.03
2018-08-16T05:47:54.871Z,510.83
2018-08-16T05:50:22.077Z,512.27
2018-08-16T05:52:49.278Z,519.03
2018-08-16T05:55:16.528Z,522.03
2018-08-16T05:57:43.732Z,519.87
2018-08-16T06:00:12.831Z,517.20
2018-08-16T06:02:40.201Z,516.37
2018-08-16T06:05:08.496Z,524.63
2018-08-16T06:07:36.087Z,519.43
2018-08-16T06:10:03.820Z,516.67
2018-08-16T06:12:31.060Z,515.87
2018-08-16T06:14:58.267Z,518.27
2018-08-16T06:17:25.539Z,520.93
2018-08-16T06:19:52.896Z,446.63
2018-08-16T06:22:20.673Z,446.60
2018-08-16T06:24:47.963Z,530.03
2018-08-16T06:27:15.277Z,528.97
2018-08-16T06:29:42.527Z,527.07
2018-08-16T06:32:09.808Z,533.83
2018-08-16T06:34:37.330Z,522.20
2018-08-16T06:37:04.715Z,532.83
2018-08-16T06:39:31.983Z,480.23
2018-08-16T06:41:59.252Z,526.93
2018-08-16T06:44:26.564Z,525.17
2018-08-16T06:46:53.815Z,524.47
2018-08-16T06:49:21.064Z,539.07
2018-08-16T06:51:48.339Z,528.57
2018-08-16T06:54:15.616Z,530.87
2018-08-16T06:56:42.875Z,536.93
2018-08-16T06:59:10.127Z,553.73
2018-08-16T07:01:37.391Z,561.20
2018-08-16T07:04:04.659Z,564.90
2018-08-16T07:06:31.939Z,588.20
2018-08-16T07:08:59.168Z,586.43
2018-08-16T07:11:26.388Z,640.53
2018-08-16T07:13:53.630Z,671.00
2018-08-16T07:16:20.888Z,643.27
2018-08-16T07:18:48.216Z,610.47
2018-08-16T07:21:15.400Z,685.97
2018-08-16T07:23:42.630Z,711.77
2018-08-16T07:26:09.891Z,631.77
2018-08-16T07:28:37.148Z,644.30
2018-08-16T07:31:04.404Z,735.97
2018-08-16T07:33:31.703Z,746.03
2018-08-16T07:35:58.939Z,761.43
2018-08-16T07:38:26.183Z,780.00
2018-08-16T07:40:53.488Z,773.47
2018-08-16T07:43:20.719Z,809.10
2018-08-16T07:45:48.047Z,772.57
2018-08-16T07:48:15.236Z,775.07
2018-08-16T07:50:42.508Z,842.03
2018-08-16T07:53:09.739Z,779.97
2018-08-16T07:55:36.984Z,807.20
2018-08-16T07:58:04.327Z,869.20
2018-08-16T08:00:31.555Z,828.27
2018-08-16T08:02:58.806Z,881.80
2018-08-16T08:05:26.088Z,842.07
2018-08-16T08:07:53.311Z,844.70
2018-08-16T08:10:20.544Z,833.27
2018-08-16T08:12:47.789Z,864.27
2018-08-16T08:15:15.331Z,838.77
2018-08-16T08:17:42.519Z,884.07
2018-08-16T08:20:12.147Z,891.20
2018-08-16T08:22:39.708Z,817.73
2018-08-16T08:25:07.041Z,809.77
2018-08-16T08:27:34.547Z,792.60
2018-08-16T08:30:02.130Z,860.33
2018-08-16T08:32:29.379Z,839.27
2018-08-16T08:34:56.656Z,812.93
2018-08-16T08:37:35.535Z,885.03
2018-08-16T08:40:02.880Z,864.43
2018-08-16T08:42:30.097Z,881.00
2018-08-16T08:44:57.346Z,870.20
2018-08-16T08:47:29.151Z,903.57
2018-08-16T08:49:56.411Z,870.87
2018-08-16T08:52:23.629Z,850.27
2018-08-16T08:55:02.567Z,885.70
2018-08-16T08:57:41.467Z,841.17
2018-08-16T09:00:08.875Z,854.00
2018-08-16T09:02:36.144Z,925.17
2018-08-16T09:05:04.595Z,879.43
2018-08-16T09:07:31.884Z,847.03
2018-08-16T09:11:10.001Z,817.23
2018-08-16T09:13:49.327Z,840.93
2018-08-16T09:16:23.464Z,913.23
2018-08-16T09:18:50.727Z,823.60
2018-08-16T09:21:18.066Z,869.23
2018-08-16T09:23:45.450Z,909.60
2018-08-16T09:26:18.535Z,842.00
2018-08-16T09:28:45.775Z,847.10
2018-08-16T09:31:25.080Z,836.07
2018-08-16T09:34:09.133Z,918.63
2018-08-16T09:36:36.377Z,927.27
2018-08-16T09:39:05.591Z,855.27
2018-08-16T09:41:32.796Z,848.13
2018-08-16T09:44:00.009Z,843.07
2018-08-16T09:46:53.528Z,846.33
2018-08-16T09:49:20.774Z,906.20
2018-08-16T09:51:48.125Z,883.83
2018-08-16T09:54:15.668Z,897.17
2018-08-16T09:56:43.704Z,891.27
2018-08-16T09:59:11.056Z,934.50
2018-08-16T10:01:38.435Z,878.13
2018-08-16T10:04:06.423Z,877.17
2018-08-16T10:06:33.990Z,902.00
2018-08-16T10:09:01.209Z,920.67
2018-08-16T10:11:28.442Z,862.07
2018-08-16T10:13:57.111Z,839.60
2018-08-16T10:16:24.324Z,842.23
2018-08-16T10:18:51.543Z,926.80
2018-08-16T10:21:19.520Z,873.83
2018-08-16T10:23:46.775Z,945.13
2018-08-16T10:26:13.984Z,910.30
2018-08-16T10:28:42.029Z,904.30
2018-08-16T10:31:09.244Z,909.43
2018-08-16T10:33:36.458Z,909.07
2018-08-16T10:36:03.714Z,867.23
2018-08-16T10:38:30.918Z,893.57
2018-08-16T10:40:58.118Z,910.57
2018-08-16T10:43:25.627Z,863.27
2018-08-16T10:45:52.871Z,914.93
2018-08-16T10:48:20.075Z,935.20
2018-08-16T10:50:47.291Z,909.10
2018-08-16T10:53:14.516Z,879.73
2018-08-16T10:55:41.763Z,877.50
2018-08-16T10:58:08.959Z,935.37
2018-08-16T11:00:36.169Z,943.37
2018-08-16T11:03:03.507Z,877.43
2018-08-16T11:05:30.714Z,851.73
2018-08-16T11:07:57.920Z,937.90
2018-08-16T11:10:25.143Z,900.37
2018-08-16T11:12:52.364Z,916.73
2018-08-16T11:15:20.405Z,848.00
2018-08-16T11:17:47.608Z,922.47
2018-08-16T11:20:14.820Z,852.93
2018-08-16T11:22:42.024Z,940.97
2018-08-16T11:25:09.247Z,904.23
2018-08-16T11:27:36.448Z,890.63
2018-08-16T11:30:04.289Z,911.27
2018-08-16T11:32:31.504Z,855.83
2018-08-16T11:34:58.756Z,816.63
2018-08-16T11:37:25.931Z,822.37
2018-08-16T11:39:53.133Z,834.83
2018-08-16T11:42:20.440Z,826.03
2018-08-16T11:44:47.631Z,854.77
2018-08-16T11:47:14.832Z,843.73
2018-08-16T11:49:42.062Z,864.53
2018-08-16T11:52:09.296Z,931.40
2018-08-16T11:54:36.479Z,849.37
2018-08-16T11:57:04.172Z,847.37
2018-08-16T11:59:31.377Z,861.43
2018-08-16T12:01:58.610Z,880.60
2018-08-16T12:04:25.784Z,872.87
2018-08-16T12:06:53.007Z,899.07
2018-08-16T12:09:20.209Z,843.40
2018-08-16T12:11:47.405Z,916.53
2018-08-16T12:14:14.640Z,873.23
2018-08-16T12:16:41.844Z,910.30
2018-08-16T12:19:09.044Z,856.67
2018-08-16T12:21:36.250Z,924.53
2018-08-16T12:24:03.487Z,896.93
2018-08-16T12:26:30.725Z,857.50
2018-08-16T12:28:57.955Z,839.67
2018-08-16T12:31:25.183Z,899.23
2018-08-16T12:33:52.446Z,872.43
2018-08-16T12:36:19.712Z,867.57
2018-08-16T12:38:46.943Z,863.07
2018-08-16T12:41:14.218Z,925.70
2018-08-16T12:43:41.407Z,898.13
2018-08-16T12:46:08.633Z,859.73
2018-08-16T12:48:35.867Z,956.57
2018-08-16T12:51:03.136Z,877.80
2018-08-16T12:53:30.385Z,868.93
2018-08-16T12:55:57.660Z,949.10
2018-08-16T12:58:24.916Z,958.00
2018-08-16T13:00:52.167Z,892.93
2018-08-16T13:03:19.413Z,973.13
2018-08-16T13:05:46.659Z,943.00
2018-08-16T13:08:13.904Z,951.63
2018-08-16T13:10:41.127Z,918.67
2018-08-16T13:13:08.391Z,918.73
2018-08-16T13:15:35.630Z,941.73
2018-08-16T13:18:02.904Z,944.00
2018-08-16T13:20:30.139Z,916.73
2018-08-16T13:22:57.399Z,954.37
2018-08-16T13:25:24.620Z,900.97
2018-08-16T13:27:51.846Z,957.37
2018-08-16T13:30:19.091Z,931.70
2018-08-16T13:32:46.312Z,932.37
2018-08-16T13:35:13.516Z,903.53
2018-08-16T13:37:40.715Z,915.23
2018-08-16T13:40:07.965Z,884.43
2018-08-16T13:42:35.160Z,928.07
2018-08-16T13:45:02.413Z,912.33
2018-08-16T13:47:29.604Z,884.13
2018-08-16T13:49:56.824Z,886.80
2018-08-16T13:52:24.137Z,890.63
2018-08-16T13:54:51.414Z,931.10
2018-08-16T13:57:18.627Z,881.87
2018-08-16T13:59:45.843Z,907.17
2018-08-16T14:02:13.067Z,919.13
2018-08-16T14:04:40.392Z,902.03
2018-08-16T14:07:07.610Z,915.27
2018-08-16T14:09:34.824Z,889.43
2018-08-16T14:14:40.221Z,921.83
2018-08-16T14:17:07.773Z,921.60
2018-08-16T14:19:35.064Z,924.07
2018-08-16T14:22:02.280Z,902.10
2018-08-16T14:24:29.484Z,856.57
2018-08-16T14:26:56.683Z,893.23
2018-08-16T14:29:23.904Z,895.73
2018-08-16T14:31:51.135Z,846.37
2018-08-16T14:34:18.368Z,825.80
2018-08-16T14:36:45.588Z,825.60
2018-08-16T14:39:12.816Z,878.23
2018-08-16T14:41:40.234Z,905.40
2018-08-16T14:44:07.776Z,850.90
2018-08-16T14:46:35.370Z,856.07
2018-08-16T14:49:02.628Z,847.27
2018-08-16T14:51:29.896Z,921.50
2018-08-16T14:53:57.105Z,877.03
2018-08-16T14:56:24.324Z,834.40
2018-08-16T14:58:51.548Z,837.47
2018-08-16T15:01:18.788Z,857.43
2018-08-16T15:03:46.003Z,912.77
2018-08-16T15:06:13.241Z,880.77
2018-08-16T15:08:40.475Z,918.83
2018-08-16T15:11:07.735Z,896.60
2018-08-16T15:13:34.981Z,859.57
2018-08-16T15:16:02.241Z,854.90
2018-08-16T15:18:29.517Z,854.70
2018-08-16T15:20:56.771Z,904.77
2018-08-16T15:23:24.005Z,914.33
2018-08-16T15:25:51.256Z,856.77
2018-08-16T15:28:19.064Z,903.67
2018-08-16T15:30:46.295Z,855.90
2018-08-16T15:33:13.507Z,926.93
2018-08-16T15:35:40.724Z,894.37
2018-08-16T15:38:07.931Z,811.00
2018-08-16T15:40:35.131Z,813.20
2018-08-16T15:43:02.340Z,856.90
2018-08-16T15:45:29.539Z,806.27
2018-08-16T15:47:56.802Z,791.63
2018-08-16T15:50:23.988Z,812.87
2018-08-16T15:52:51.596Z,808.90
2018-08-16T15:55:18.816Z,804.40
2018-08-16T15:57:46.023Z,804.43
2018-08-16T16:00:13.234Z,807.17
2018-08-16T16:02:41.888Z,844.13
2018-08-16T16:05:09.263Z,783.10
2018-08-16T16:07:36.627Z,823.63
2018-08-16T16:10:04.480Z,799.17
2018-08-16T16:12:31.704Z,791.80
2018-08-16T16:14:58.935Z,797.17
2018-08-16T16:17:26.226Z,801.90
2018-08-16T16:19:53.455Z,818.20
2018-08-16T16:22:20.671Z,798.03
2018-08-16T16:24:47.907Z,752.63
2018-08-16T16:27:15.111Z,763.37
2018-08-16T16:29:42.336Z,755.30
2018-08-16T16:32:09.575Z,755.23
2018-08-16T16:34:36.786Z,752.40
2018-08-16T16:37:04.049Z,800.23
2018-08-16T16:39:31.243Z,778.07
2018-08-16T16:41:58.455Z,782.83
2018-08-16T16:44:25.676Z,767.30
2018-08-16T16:46:52.917Z,699.97
2018-08-16T16:49:22.151Z,712.50
2018-08-16T16:51:49.392Z,680.57
2018-08-16T16:54:16.595Z,743.43
2018-08-16T16:56:43.831Z,748.57
2018-08-16T16:59:11.059Z,700.40
2018-08-16T17:01:38.276Z,702.43
2018-08-16T17:04:05.633Z,664.93
2018-08-16T17:06:32.860Z,748.93
2018-08-16T17:09:00.083Z,713.67
2018-08-16T17:11:27.283Z,694.90
2018-08-16T17:13:54.480Z,701.87
2018-08-16T17:16:21.823Z,682.33
2018-08-16T17:18:48.976Z,698.83
2018-08-16T17:21:16.179Z,710.77
2018-08-16T17:23:43.388Z,779.87
2018-08-16T17:26:10.676Z,783.50
2018-08-16T17:28:37.864Z,714.63
2018-08-16T17:31:05.170Z,795.90
2018-08-16T17:33:32.388Z,725.33
2018-08-16T17:35:59.580Z,724.23
2018-08-16T17:38:26.816Z,798.60
2018-08-16T17:40:54.099Z,778.70
2018-08-16T17:43:21.261Z,693.33
2018-08-16T17:45:48.571Z,694.17
2018-08-16T17:48:15.775Z,747.23
2018-08-16T17:50:42.967Z,716.23
2018-08-16T17:53:10.176Z,704.63
2018-08-16T17:55:37.384Z,761.20
2018-08-16T17:58:04.607Z,689.80
2018-08-16T18:00:31.819Z,762.77
2018-08-16T18:02:59.047Z,764.83
2018-08-16T18:05:26.264Z,697.50
2018-08-16T18:07:53.499Z,668.47
2018-08-16T18:10:20.809Z,652.63
2018-08-16T18:12:48.015Z,604.03
2018-08-16T18:15:15.224Z,620.63
2018-08-16T18:17:42.444Z,592.37
2018-08-16T18:20:09.668Z,661.50
2018-08-16T18:22:37.129Z,589.77
2018-08-16T18:25:05.000Z,636.17
2018-08-16T18:27:32.195Z,592.83
2018-08-16T18:29:59.726Z,588.17
2018-08-16T18:32:26.943Z,600.50
2018-08-16T18:34:54.136Z,606.87
2018-08-16T18:37:21.361Z,584.03
2018-08-16T18:39:48.559Z,588.23
2018-08-16T18:42:15.845Z,590.60
2018-08-16T18:44:43.074Z,578.33
2018-08-16T18:47:10.243Z,582.63
2018-08-16T18:49:37.455Z,593.97
2018-08-16T18:52:04.771Z,581.77
2018-08-16T18:54:31.995Z,583.17
2018-08-16T18:56:59.205Z,584.50
2018-08-16T18:59:26.464Z,577.40
2018-08-16T19:01:53.627Z,574.30
2018-08-16T19:04:20.837Z,577.63
2018-08-16T19:06:48.031Z,584.77
2018-08-16T19:09:15.239Z,571.60
2018-08-16T19:11:42.449Z,586.73
2018-08-16T19:14:09.648Z,581.07
2018-08-16T19:16:36.847Z,577.17
2018-08-16T19:19:04.628Z,583.87
2018-08-16T19:21:31.861Z,566.97
2018-08-16T19:23:59.046Z,570.60
2018-08-16T19:26:26.233Z,585.27
2018-08-16T19:28:53.501Z,567.53
2018-08-16T19:31:20.707Z,583.27
2018-08-16T19:33:47.937Z,578.83
2018-08-16T19:36:15.132Z,586.03
2018-08-16T19:38:42.319Z,582.43
2018-08-16T19:41:09.601Z,572.53
2018-08-16T19:43:36.864Z,566.97
2018-08-16T19:46:04.140Z,565.87
2018-08-16T19:48:31.396Z,579.37
2018-08-16T19:50:58.584Z,582.67
2018-08-16T19:53:25.800Z,578.40
2018-08-16T19:55:52.999Z,571.73
2018-08-16T19:58:20.192Z,566.93
2018-08-16T20:00:47.407Z,575.07
2018-08-16T20:03:14.612Z,568.87
2018-08-16T20:05:41.810Z,564.90
2018-08-16T20:08:09.024Z,565.47
2018-08-16T20:10:36.232Z,566.50
2018-08-16T20:13:03.641Z,565.73
2018-08-16T20:15:30.859Z,562.87
2018-08-16T20:17:58.223Z,576.43
2018-08-16T20:20:25.405Z,564.00
2018-08-16T20:22:52.583Z,577.63
2018-08-16T20:25:19.787Z,577.33
2018-08-16T20:27:46.984Z,561.43
2018-08-16T20:30:14.289Z,567.33
2018-08-16T20:32:41.484Z,568.90
2018-08-16T20:35:08.688Z,560.47
2018-08-16T20:37:35.963Z,573.83
2018-08-16T20:40:03.740Z,562.57
2018-08-16T20:42:30.947Z,576.63
2018-08-16T20:44:58.161Z,566.13
2018-08-16T20:47:25.368Z,562.33
2018-08-16T20:49:52.576Z,576.73
2018-08-16T20:52:19.879Z,570.57
2018-08-16T20:54:47.084Z,580.07
2018-08-16T20:57:14.331Z,567.40
2018-08-16T20:59:41.498Z,568.23
2018-08-16T21:02:08.699Z,584.00
2018-08-16T21:04:35.904Z,565.50
2018-08-16T21:07:03.166Z,564.70
2018-08-16T21:09:30.367Z,561.93
2018-08-16T21:11:57.555Z,573.47
2018-08-16T21:14:24.755Z,562.47
2018-08-16T21:16:51.943Z,564.17
2018-08-16T21:19:19.144Z,559.20
2018-08-16T21:21:46.392Z,568.50
2018-08-16T21:24:13.547Z,564.77
2018-08-16T21:26:40.767Z,562.67
2018-08-16T21:29:07.955Z,562.67
2018-08-16T21:31:35.175Z,568.83
2018-08-16T21:34:02.411Z,567.20
2018-08-16T21:36:29.614Z,573.20
2018-08-16T21:38:56.820Z,564.27
2018-08-16T21:41:24.047Z,555.33
2018-08-16T21:43:51.240Z,560.23
2018-08-16T21:46:18.468Z,567.23
2018-08-16T21:48:45.663Z,570.03
2018-08-16T21:51:12.992Z,556.83
2018-08-16T21:53:40.195Z,554.43
2018-08-16T21:56:07.436Z,552.50
2018-08-16T21:58:34.847Z,548.23
2018-08-16T22:01:04.873Z,546.97
2018-08-16T22:03:32.104Z,550.50
2018-08-16T22:06:06.515Z,554.40
2018-08-16T22:08:42.535Z,547.60
2018-08-16T22:11:10.113Z,551.20
2018-08-16T22:13:37.583Z,546.67
2018-08-16T22:16:05.047Z,557.87
2018-08-16T22:18:32.297Z,549.60
2018-08-16T22:20:59.539Z,550.67
2018-08-16T22:23:26.999Z,551.30
2018-08-16T22:25:54.236Z,545.93
2018-08-16T22:28:21.428Z,547.10
2018-08-16T22:30:48.657Z,550.23
2018-08-16T22:33:15.865Z,546.83
2018-08-16T22:35:43.091Z,547.03
2018-08-16T22:38:10.500Z,545.27
2018-08-16T22:40:37.741Z,548.13
2018-08-16T22:43:05.081Z,548.07
2018-08-16T22:45:32.315Z,544.47
2018-08-16T22:47:59.536Z,545.73
2018-08-16T22:50:26.755Z,547.13
2018-08-16T22:52:53.968Z,550.80
2018-08-16T22:55:21.156Z,547.47
2018-08-16T22:57:48.361Z,561.87
2018-08-16T23:00:15.674Z,555.90
2018-08-16T23:02:42.900Z,548.10
2018-08-16T23:05:10.265Z,559.47
2018-08-16T23:07:37.581Z,554.77
2018-08-16T23:10:04.827Z,550.20
2018-08-16T23:12:32.040Z,556.90
2018-08-16T23:14:59.236Z,558.17
2018-08-16T23:17:26.448Z,554.93
2018-08-16T23:19:53.670Z,545.27
2018-08-16T23:22:20.872Z,550.20
2018-08-16T23:24:48.068Z,543.87
2018-08-16T23:27:15.257Z,542.20
2018-08-16T23:29:42.456Z,545.90
2018-08-16T23:32:09.704Z,545.83
2018-08-16T23:34:36.928Z,544.47
2018-08-16T23:37:04.328Z,554.40
2018-08-16T23:39:31.590Z,544.07
2018-08-16T23:41:58.821Z,542.60
2018-08-16T23:44:26.050Z,553.90
2018-08-16T23:46:53.296Z,545.60
2018-08-16T23:49:20.536Z,554.63
2018-08-16T23:51:47.760Z,543.03
2018-08-16T23:54:15.116Z,551.20
2018-08-16T23:56:42.352Z,542.50
2018-08-16T23:59:09.579Z,552.80
